createdAt,value
2022-09-12T03:33:43.284Z,1009.49
2022-09-12T03:34:44.200Z,1009.48
2022-09-12T03:35:44.202Z,1009.42
2022-09-12T03:36:44.177Z,1009.42
2022-09-12T03:37:44.167Z,1009.43
2022-09-12T03:38:44.217Z,1009.44
2022-09-12T03:39:50.781Z,1009.39
2022-09-12T03:40:44.140Z,1009.46
2022-09-12T03:41:44.144Z,1009.44
2022-09-12T03:42:44.120Z,1009.42
2022-09-12T03:43:44.109Z,1009.41
2022-09-12T03:44:44.083Z,1009.42
2022-09-12T03:45:44.122Z,1009.47
2022-09-12T03:46:44.092Z,1009.50
2022-09-12T03:47:44.071Z,1009.50
2022-09-12T03:48:44.100Z,1009.47
2022-09-12T03:49:44.045Z,1009.44
2022-09-12T03:50:44.018Z,1009.48
2022-09-12T03:51:44.012Z,1009.47
2022-09-12T03:52:44.005Z,1009.46
2022-09-12T03:53:44.002Z,1009.48
2022-09-12T03:54:43.998Z,1009.49
2022-09-12T03:55:43.965Z,1009.45
2022-09-12T03:56:43.965Z,1009.45
2022-09-12T03:57:43.978Z,1009.50
2022-09-12T03:58:43.995Z,1009.44
2022-09-12T03:59:43.962Z,1009.47
2022-09-12T04:00:43.914Z,1009.42
2022-09-12T04:01:43.924Z,1009.39
2022-09-12T04:02:50.448Z,1009.41
2022-09-12T04:03:43.936Z,1009.36
2022-09-12T04:04:43.886Z,1009.37
2022-09-12T04:05:43.856Z,1009.35
2022-09-12T04:06:43.856Z,1009.36
2022-09-12T04:07:43.848Z,1009.41
2022-09-12T04:08:43.903Z,1009.33
2022-09-12T04:09:43.814Z,1009.38
2022-09-12T04:10:43.812Z,1009.38
2022-09-12T04:11:43.799Z,1009.36
2022-09-12T04:12:43.800Z,1009.37
2022-09-12T04:13:43.791Z,1009.35
2022-09-12T04:14:43.798Z,1009.34
2022-09-12T04:15:43.754Z,1009.33
2022-09-12T04:16:43.784Z,1009.34
2022-09-12T04:17:43.737Z,1009.33
2022-09-12T04:18:43.710Z,1009.29
2022-09-12T04:19:43.741Z,1009.30
2022-09-12T04:20:43.728Z,1009.26
2022-09-12T04:21:43.678Z,1009.28
2022-09-12T04:22:43.698Z,1009.28
2022-09-12T04:23:43.659Z,1009.25
2022-09-12T04:24:43.664Z,1009.28
2022-09-12T04:25:43.643Z,1009.22
2022-09-12T04:26:43.629Z,1009.24
2022-09-12T04:27:43.632Z,1009.24
2022-09-12T04:28:43.610Z,1009.24
2022-09-12T04:29:43.598Z,1009.21
2022-09-12T04:30:43.610Z,1009.20
2022-09-12T04:31:43.587Z,1009.20
2022-09-12T04:32:43.584Z,1009.20
2022-09-12T04:33:43.574Z,1009.19
2022-09-12T04:34:43.587Z,1009.24
2022-09-12T04:35:43.521Z,1009.24
2022-09-12T04:36:43.519Z,1009.23
2022-09-12T04:37:43.505Z,1009.24
2022-09-12T04:38:43.521Z,1009.23
2022-09-12T04:39:43.622Z,1009.25
2022-09-12T04:40:43.466Z,1009.24
2022-09-12T04:41:43.513Z,1009.24
2022-09-12T04:42:43.446Z,1009.22
2022-09-12T04:43:43.464Z,1009.21
2022-09-12T04:44:43.435Z,1009.20
2022-09-12T04:45:43.484Z,1009.19
2022-09-12T04:46:43.409Z,1009.20
2022-09-12T04:47:43.397Z,1009.22
2022-09-12T04:48:43.388Z,1009.19
2022-09-12T04:49:43.372Z,1009.22
2022-09-12T04:50:43.372Z,1009.24
2022-09-12T04:51:43.353Z,1009.25
2022-09-12T04:52:43.344Z,1009.24
2022-09-12T04:53:43.342Z,1009.23
2022-09-12T04:54:43.329Z,1009.21
2022-09-12T04:55:43.304Z,1009.26
2022-09-12T04:56:43.346Z,1009.24
2022-09-12T04:57:43.281Z,1009.23
2022-09-12T04:58:43.366Z,1009.18
2022-09-12T04:59:43.323Z,1009.16
2022-09-12T05:00:43.246Z,1009.20
2022-09-12T05:01:43.232Z,1009.20
2022-09-12T05:02:43.229Z,1009.13
2022-09-12T05:03:43.213Z,1009.07
2022-09-12T05:04:43.206Z,1009.10
2022-09-12T05:06:32.094Z,1009.12
2022-09-12T05:07:33.572Z,1009.08
2022-09-12T05:08:33.016Z,1009.08
2022-09-12T05:09:33.004Z,1009.06
2022-09-12T05:10:33.010Z,1009.03
2022-09-12T05:12:02.080Z,1009.02
2022-09-12T05:12:33.002Z,1009.00
2022-09-12T05:13:32.962Z,1008.97
2022-09-12T05:14:32.973Z,1008.95
2022-09-12T05:15:32.941Z,1008.95
2022-09-12T05:16:32.981Z,1008.96
2022-09-12T05:17:32.913Z,1008.95
2022-09-12T05:18:32.900Z,1009.01
2022-09-12T05:19:32.924Z,1008.96
2022-09-12T05:20:32.891Z,1008.94
2022-09-12T05:21:32.874Z,1008.97
2022-09-12T05:22:32.884Z,1008.98
2022-09-12T05:23:32.853Z,1008.97
2022-09-12T05:24:32.841Z,1008.98
2022-09-12T05:25:32.832Z,1008.98
2022-09-12T05:26:32.848Z,1008.94
2022-09-12T05:27:32.813Z,1008.91
2022-09-12T05:28:32.811Z,1008.95
2022-09-12T05:29:32.791Z,1008.93
2022-09-12T05:30:33.250Z,1008.96
2022-09-12T05:31:33.006Z,1008.96
2022-09-12T05:32:32.765Z,1008.98
2022-09-12T05:33:32.736Z,1008.95
2022-09-12T05:34:32.759Z,1009.02
2022-09-12T05:35:32.736Z,1009.01
2022-09-12T05:36:32.741Z,1009.02
2022-09-12T05:37:32.714Z,1009.04
2022-09-12T05:38:32.686Z,1008.96
2022-09-12T05:39:32.664Z,1009.02
2022-09-12T05:40:32.669Z,1009.02
2022-09-12T05:41:32.658Z,1009.00
2022-09-12T05:42:32.653Z,1008.97
2022-09-12T05:43:32.631Z,1009.04
2022-09-12T05:44:32.613Z,1009.03
2022-09-12T05:45:32.636Z,1009.04
2022-09-12T05:46:32.594Z,1009.05
2022-09-12T05:47:32.590Z,1009.02
2022-09-12T05:48:32.583Z,1009.00
2022-09-12T05:49:32.574Z,1008.97
2022-09-12T05:50:32.569Z,1008.99
2022-09-12T05:51:32.531Z,1009.01
2022-09-12T05:52:32.531Z,1009.01
2022-09-12T05:53:32.519Z,1009.00
2022-09-12T05:54:32.563Z,1009.01
2022-09-12T05:55:32.490Z,1009.04
2022-09-12T05:56:32.480Z,1009.05
2022-09-12T05:57:32.491Z,1009.05
2022-09-12T05:58:32.480Z,1009.01
2022-09-12T05:59:32.464Z,1009.07
2022-09-12T06:00:33.675Z,1009.06
2022-09-12T06:01:32.470Z,1009.03
2022-09-12T06:02:32.456Z,1009.07
2022-09-12T06:03:32.402Z,1009.09
2022-09-12T06:04:32.424Z,1009.05
2022-09-12T06:05:32.410Z,1009.09
2022-09-12T06:06:32.428Z,1009.13
2022-09-12T06:07:32.418Z,1009.16
2022-09-12T06:08:32.390Z,1009.12
2022-09-12T06:09:33.017Z,1009.17
2022-09-12T06:10:32.334Z,1009.19
2022-09-12T06:11:32.323Z,1009.17
2022-09-12T06:12:32.299Z,1009.20
2022-09-12T06:13:32.319Z,1009.19
2022-09-12T06:14:32.290Z,1009.24
2022-09-12T06:15:32.290Z,1009.12
2022-09-12T06:16:32.293Z,1009.11
2022-09-12T06:17:32.262Z,1009.13
2022-09-12T06:18:32.265Z,1009.14
2022-09-12T06:19:32.245Z,1009.13
2022-09-12T06:20:32.225Z,1009.13
2022-09-12T06:21:32.221Z,1009.14
2022-09-12T06:22:32.546Z,1009.16
2022-09-12T06:23:32.189Z,1009.17
2022-09-12T06:24:32.197Z,1009.21
2022-09-12T06:25:32.190Z,1009.19
2022-09-12T06:26:32.143Z,1009.20
2022-09-12T06:27:32.152Z,1009.17
2022-09-12T06:28:32.142Z,1009.18
2022-09-12T06:29:32.130Z,1009.20
2022-09-12T06:30:32.163Z,1009.18
2022-09-12T06:31:32.132Z,1009.16
2022-09-12T06:32:32.092Z,1009.18
2022-09-12T06:33:32.068Z,1009.18
2022-09-12T06:34:32.068Z,1009.21
2022-09-12T06:35:32.086Z,1009.19
2022-09-12T06:36:32.056Z,1009.13
2022-09-12T06:37:32.037Z,1009.19
2022-09-12T06:38:32.069Z,1009.20
2022-09-12T06:39:32.011Z,1009.17
2022-09-12T06:40:31.992Z,1009.11
2022-09-12T06:41:32.021Z,1009.12
2022-09-12T06:42:33.174Z,1009.16
2022-09-12T06:43:32.406Z,1009.18
2022-09-12T06:44:31.959Z,1009.15
2022-09-12T06:45:31.989Z,1009.14
2022-09-12T06:46:31.927Z,1009.18
2022-09-12T06:47:31.952Z,1009.17
2022-09-12T06:48:31.913Z,1009.13
2022-09-12T06:49:31.895Z,1009.17
2022-09-12T06:50:31.895Z,1009.23
2022-09-12T06:51:31.897Z,1009.22
2022-09-12T06:52:32.543Z,1009.22
2022-09-12T06:53:31.853Z,1009.23
2022-09-12T06:54:31.856Z,1009.17
2022-09-12T06:55:31.854Z,1009.16
2022-09-12T06:56:31.855Z,1009.17
2022-09-12T06:57:31.822Z,1009.10
2022-09-12T06:58:31.807Z,1009.18
2022-09-12T06:59:32.544Z,1009.12
2022-09-12T07:00:31.791Z,1009.11
2022-09-12T07:01:31.853Z,1009.14
2022-09-12T07:02:31.830Z,1009.12
2022-09-12T07:03:31.873Z,1009.17
2022-09-12T07:04:31.744Z,1009.16
2022-09-12T07:05:31.737Z,1009.14
2022-09-12T07:06:31.763Z,1009.10
2022-09-12T07:07:31.726Z,1009.06
2022-09-12T07:08:31.699Z,1009.03
2022-09-12T07:09:31.769Z,1009.03
2022-09-12T07:10:31.662Z,1009.07
2022-09-12T07:11:31.689Z,1009.07
2022-09-12T07:12:31.631Z,1009.11
2022-09-12T07:13:31.643Z,1009.09
2022-09-12T07:14:31.679Z,1009.10
2022-09-12T07:15:31.603Z,1009.11
2022-09-12T07:16:31.635Z,1009.12
2022-09-12T07:17:31.583Z,1009.15
2022-09-12T07:18:31.599Z,1009.10
2022-09-12T07:19:31.597Z,1009.16
2022-09-12T07:20:31.568Z,1009.07
2022-09-12T07:21:31.548Z,1009.08
2022-09-12T07:22:31.540Z,1009.09
2022-09-12T07:23:31.541Z,1009.09
2022-09-12T07:24:31.530Z,1009.11
2022-09-12T07:25:31.495Z,1009.10
2022-09-12T07:26:31.476Z,1009.06
2022-09-12T07:27:31.692Z,1009.06
2022-09-12T07:28:31.458Z,1009.03
2022-09-12T07:29:38.527Z,1009.05
2022-09-12T07:30:31.461Z,1009.03
2022-09-12T07:31:32.462Z,1009.06
2022-09-12T07:32:31.431Z,1009.12
2022-09-12T07:33:31.838Z,1009.07
2022-09-12T07:34:32.055Z,1009.08
2022-09-12T07:35:31.435Z,1009.12
2022-09-12T07:36:31.458Z,1009.14
2022-09-12T07:37:31.362Z,1009.08
2022-09-12T07:38:31.360Z,1009.10
2022-09-12T07:39:31.372Z,1009.13
2022-09-12T07:40:31.395Z,1009.11
2022-09-12T07:41:31.307Z,1009.13
2022-09-12T07:42:31.299Z,1009.10
2022-09-12T07:43:31.302Z,1009.09
2022-09-12T07:44:31.298Z,1009.14
2022-09-12T07:45:31.300Z,1009.13
2022-09-12T07:46:31.266Z,1009.11
2022-09-12T07:47:31.268Z,1009.10
2022-09-12T07:48:31.231Z,1009.15
2022-09-12T07:49:31.248Z,1009.13
2022-09-12T07:50:31.236Z,1009.11
2022-09-12T07:51:31.306Z,1009.10
2022-09-12T07:52:31.252Z,1009.14
2022-09-12T07:53:31.225Z,1009.10
2022-09-12T07:54:32.165Z,1009.08
2022-09-12T07:55:31.166Z,1009.02
2022-09-12T07:56:34.614Z,1009.06
2022-09-12T07:57:31.165Z,1009.06
2022-09-12T07:58:32.061Z,1009.10
2022-09-12T07:59:51.456Z,1009.06
2022-09-12T08:00:31.148Z,1009.06
2022-09-12T08:01:31.159Z,1009.10
2022-09-12T08:02:31.165Z,1009.04
2022-09-12T08:03:31.077Z,1009.16
2022-09-12T08:04:31.128Z,1009.13
2022-09-12T08:05:31.094Z,1009.08
2022-09-12T08:06:31.041Z,1009.07
2022-09-12T08:07:31.935Z,1009.08
2022-09-12T08:08:31.985Z,1009.07
2022-09-12T08:09:31.773Z,1009.07
2022-09-12T08:10:31.006Z,1009.06
2022-09-12T08:11:31.150Z,1009.10
2022-09-12T08:12:31.005Z,1009.06
2022-09-12T08:13:31.016Z,1009.10
2022-09-12T08:14:30.942Z,1009.11
2022-09-12T08:15:31.002Z,1009.01
2022-09-12T08:16:30.938Z,1009.08
2022-09-12T08:17:30.940Z,1009.00
2022-09-12T08:18:30.897Z,1009.06
2022-09-12T08:19:30.948Z,1009.09
2022-09-12T08:20:30.891Z,1009.05
2022-09-12T08:21:30.907Z,1009.06
2022-09-12T08:22:30.871Z,1009.01
2022-09-12T08:23:30.871Z,1009.08
2022-09-12T08:24:30.837Z,1009.07
2022-09-12T08:25:30.835Z,1009.02
2022-09-12T08:26:31.573Z,1009.06
2022-09-12T08:27:30.834Z,1009.01
2022-09-12T08:28:30.805Z,1009.01
2022-09-12T08:29:30.862Z,1008.99
2022-09-12T08:30:30.806Z,1008.99
2022-09-12T08:31:31.564Z,1009.01
2022-09-12T08:32:30.765Z,1008.95
2022-09-12T08:33:30.762Z,1008.98
2022-09-12T08:34:30.739Z,1008.94
2022-09-12T08:35:30.758Z,1008.96
2022-09-12T08:36:32.258Z,1008.96
2022-09-12T08:37:30.698Z,1008.95
2022-09-12T08:38:30.723Z,1008.98
2022-09-12T08:39:30.698Z,1008.95
2022-09-12T08:40:30.678Z,1008.94
2022-09-12T08:41:30.935Z,1008.93
2022-09-12T08:42:30.712Z,1008.90
2022-09-12T08:43:30.868Z,1008.88
2022-09-12T08:44:31.802Z,1008.83
2022-09-12T08:45:30.830Z,1008.82
2022-09-12T08:46:30.620Z,1008.78
2022-09-12T08:47:31.632Z,1008.80
2022-09-12T08:48:30.824Z,1008.81
2022-09-12T08:49:31.092Z,1008.78
2022-09-12T08:50:30.573Z,1008.83
2022-09-12T08:51:30.575Z,1008.86
2022-09-12T08:52:30.609Z,1008.83
2022-09-12T08:53:30.537Z,1008.83
2022-09-12T08:54:31.332Z,1008.84
2022-09-12T08:55:30.508Z,1008.80
2022-09-12T08:56:31.788Z,1008.86
2022-09-12T08:57:30.623Z,1008.82
2022-09-12T08:58:30.498Z,1008.83
2022-09-12T08:59:30.474Z,1008.78
2022-09-12T09:00:30.471Z,1008.77
2022-09-12T09:01:30.509Z,1008.80
2022-09-12T09:02:30.489Z,1008.81
2022-09-12T09:03:30.427Z,1008.76
2022-09-12T09:04:30.451Z,1008.77
2022-09-12T09:05:30.389Z,1008.80
2022-09-12T09:06:30.410Z,1008.79
2022-09-12T09:07:30.368Z,1008.75
2022-09-12T09:08:30.346Z,1008.75
2022-09-12T09:09:33.289Z,1008.70
2022-09-12T09:10:30.328Z,1008.78
2022-09-12T09:11:30.339Z,1008.75
2022-09-12T09:12:36.897Z,1008.69
2022-09-12T09:13:30.301Z,1008.74
2022-09-12T09:14:30.307Z,1008.71
2022-09-12T09:15:30.326Z,1008.67
2022-09-12T09:16:30.291Z,1008.69
2022-09-12T09:17:30.284Z,1008.66
2022-09-12T09:18:33.731Z,1008.64
2022-09-12T09:19:31.130Z,1008.65
2022-09-12T09:20:30.235Z,1008.64
2022-09-12T09:21:30.267Z,1008.65
2022-09-12T09:22:30.247Z,1008.61
2022-09-12T09:23:30.205Z,1008.63
2022-09-12T09:24:30.406Z,1008.57
2022-09-12T09:25:30.185Z,1008.54
2022-09-12T09:26:30.184Z,1008.54
2022-09-12T09:27:40.549Z,1008.53
2022-09-12T09:28:30.244Z,1008.48
2022-09-12T09:29:30.134Z,1008.45
2022-09-12T09:30:30.135Z,1008.46
2022-09-12T09:31:30.185Z,1008.41
2022-09-12T09:32:30.088Z,1008.38
2022-09-12T09:33:30.113Z,1008.34
2022-09-12T09:34:30.129Z,1008.31
2022-09-12T09:35:34.329Z,1008.36
2022-09-12T09:36:30.646Z,1008.29
2022-09-12T09:37:30.076Z,1008.26
2022-09-12T09:38:30.043Z,1008.27
2022-09-12T09:39:30.053Z,1008.26
2022-09-12T09:40:30.051Z,1008.25
2022-09-12T09:41:30.048Z,1008.27
2022-09-12T09:42:30.025Z,1008.30
2022-09-12T09:43:30.073Z,1008.28
2022-09-12T09:44:29.975Z,1008.25
2022-09-12T09:45:29.969Z,1008.26
2022-09-12T09:46:30.699Z,1008.18
2022-09-12T09:47:31.661Z,1008.14
2022-09-12T09:48:30.655Z,1008.10
2022-09-12T09:49:29.948Z,1008.10
2022-09-12T09:50:29.914Z,1008.10
2022-09-12T09:51:29.895Z,1008.13
2022-09-12T09:52:29.872Z,1008.07
2022-09-12T09:53:29.884Z,1008.13
2022-09-12T09:54:29.855Z,1008.05
2022-09-12T09:55:29.871Z,1008.09
2022-09-12T09:56:29.841Z,1008.06
2022-09-12T09:57:30.657Z,1008.04
2022-09-12T09:58:30.164Z,1007.99
2022-09-12T09:59:29.834Z,1008.04
2022-09-12T10:00:29.813Z,1008.05
2022-09-12T10:01:30.078Z,1008.00
2022-09-12T10:02:29.822Z,1007.96
2022-09-12T10:03:29.759Z,1007.94
2022-09-12T10:04:29.801Z,1007.88
2022-09-12T10:05:29.751Z,1007.96
2022-09-12T10:06:29.737Z,1007.94
2022-09-12T10:07:29.720Z,1007.91
2022-09-12T10:08:30.670Z,1007.90
2022-09-12T10:09:29.708Z,1007.89
2022-09-12T10:10:30.651Z,1007.90
2022-09-12T10:11:29.695Z,1007.89
2022-09-12T10:12:35.780Z,1007.85
2022-09-12T10:13:31.393Z,1007.85
2022-09-12T10:14:29.647Z,1007.82
2022-09-12T10:15:29.873Z,1007.80
2022-09-12T10:16:30.698Z,1007.82
2022-09-12T10:17:34.251Z,1007.73
2022-09-12T10:18:29.826Z,1007.70
2022-09-12T10:19:29.594Z,1007.72
2022-09-12T10:20:29.592Z,1007.75
2022-09-12T10:21:29.657Z,1007.75
2022-09-12T10:22:29.590Z,1007.74
2022-09-12T10:23:29.569Z,1007.75
2022-09-12T10:24:29.989Z,1007.76
2022-09-12T10:25:30.173Z,1007.68
2022-09-12T10:26:29.531Z,1007.73
2022-09-12T10:27:29.554Z,1007.70
2022-09-12T10:28:29.517Z,1007.72
2022-09-12T10:29:29.509Z,1007.67
2022-09-12T10:30:29.570Z,1007.60
2022-09-12T10:31:29.478Z,1007.66
2022-09-12T10:32:30.985Z,1007.56
2022-09-12T10:33:29.494Z,1007.53
2022-09-12T10:34:29.459Z,1007.60
2022-09-12T10:35:29.437Z,1007.59
2022-09-12T10:36:29.452Z,1007.57
2022-09-12T10:37:29.471Z,1007.54
2022-09-12T10:38:29.427Z,1007.50
2022-09-12T10:39:29.406Z,1007.50
2022-09-12T10:40:29.387Z,1007.51
2022-09-12T10:41:29.423Z,1007.50
2022-09-12T10:42:29.382Z,1007.54
2022-09-12T10:43:29.367Z,1007.49
2022-09-12T10:44:29.400Z,1007.51
2022-09-12T10:45:29.337Z,1007.44
2022-09-12T10:46:29.442Z,1007.41
2022-09-12T10:47:29.332Z,1007.40
2022-09-12T10:48:29.314Z,1007.40
2022-09-12T10:49:29.298Z,1007.37
2022-09-12T10:50:29.327Z,1007.36
2022-09-12T10:51:29.310Z,1007.42
2022-09-12T10:52:29.283Z,1007.38
2022-09-12T10:53:34.160Z,1007.33
2022-09-12T10:54:29.253Z,1007.32
2022-09-12T10:55:29.261Z,1007.36
2022-09-12T10:56:29.253Z,1007.31
2022-09-12T10:57:29.234Z,1007.31
2022-09-12T10:58:29.210Z,1007.32
2022-09-12T10:59:29.201Z,1007.27
2022-09-12T11:00:29.404Z,1007.28
2022-09-12T11:01:29.280Z,1007.30
2022-09-12T11:02:30.259Z,1007.29
2022-09-12T11:03:29.175Z,1007.23
2022-09-12T11:04:31.897Z,1007.22
2022-09-12T11:05:29.164Z,1007.26
2022-09-12T11:06:29.154Z,1007.30
2022-09-12T11:07:29.676Z,1007.27
2022-09-12T11:08:29.124Z,1007.23
2022-09-12T11:09:29.122Z,1007.24
2022-09-12T11:10:34.307Z,1007.20
2022-09-12T11:11:29.106Z,1007.26
2022-09-12T11:12:29.088Z,1007.21
2022-09-12T11:13:29.091Z,1007.13
2022-09-12T11:14:29.097Z,1007.07
2022-09-12T11:15:29.099Z,1007.09
2022-09-12T11:16:29.061Z,1007.04
2022-09-12T11:17:29.055Z,1007.00
2022-09-12T11:18:29.024Z,1007.00
2022-09-12T11:19:29.013Z,1007.00
2022-09-12T11:20:29.012Z,1007.02
2022-09-12T11:21:29.029Z,1007.00
2022-09-12T11:22:31.899Z,1006.96
2022-09-12T11:23:28.975Z,1006.93
2022-09-12T11:24:29.014Z,1006.92
2022-09-12T11:25:28.974Z,1006.91
2022-09-12T11:26:28.979Z,1006.83
2022-09-12T11:27:28.959Z,1006.88
2022-09-12T11:28:28.963Z,1006.84
2022-09-12T11:29:28.920Z,1006.79
2022-09-12T11:30:28.988Z,1006.78
2022-09-12T11:31:28.912Z,1006.75
2022-09-12T11:32:29.104Z,1006.76
2022-09-12T11:33:28.897Z,1006.76
2022-09-12T11:34:28.884Z,1006.72
2022-09-12T11:35:28.888Z,1006.70
2022-09-12T11:36:28.861Z,1006.73
2022-09-12T11:37:28.854Z,1006.75
2022-09-12T11:38:28.865Z,1006.79
2022-09-12T11:39:28.853Z,1006.71
2022-09-12T11:40:28.933Z,1006.72
2022-09-12T11:41:28.827Z,1006.71
2022-09-12T11:42:35.348Z,1006.70
2022-09-12T11:43:28.830Z,1006.67
2022-09-12T11:44:28.826Z,1006.70
2022-09-12T11:45:28.773Z,1006.62
2022-09-12T11:46:28.863Z,1006.61
2022-09-12T11:47:28.774Z,1006.58
2022-09-12T11:48:28.780Z,1006.58
2022-09-12T11:49:29.727Z,1006.65
2022-09-12T11:50:28.738Z,1006.63
2022-09-12T11:51:28.729Z,1006.55
2022-09-12T11:52:28.741Z,1006.57
2022-09-12T11:53:28.919Z,1006.55
2022-09-12T11:54:28.733Z,1006.51
2022-09-12T11:55:28.729Z,1006.52
2022-09-12T11:56:28.684Z,1006.52
2022-09-12T11:57:28.673Z,1006.50
2022-09-12T11:58:28.670Z,1006.56
2022-09-12T11:59:28.669Z,1006.53
2022-09-12T12:00:28.871Z,1006.54
2022-09-12T12:01:28.667Z,1006.51
2022-09-12T12:02:28.723Z,1006.51
2022-09-12T12:03:28.670Z,1006.44
2022-09-12T12:04:28.644Z,1006.47
2022-09-12T12:05:28.595Z,1006.43
2022-09-12T12:06:28.619Z,1006.47
2022-09-12T12:07:28.590Z,1006.48
2022-09-12T12:08:28.582Z,1006.45
2022-09-12T12:09:28.576Z,1006.43
2022-09-12T12:10:28.557Z,1006.38
2022-09-12T12:11:28.556Z,1006.41
2022-09-12T12:12:28.552Z,1006.36
2022-09-12T12:13:28.530Z,1006.36
2022-09-12T12:14:28.535Z,1006.35
2022-09-12T12:15:28.547Z,1006.41
2022-09-12T12:16:28.501Z,1006.36
2022-09-12T12:17:28.600Z,1006.35
2022-09-12T12:18:28.486Z,1006.34
2022-09-12T12:19:28.554Z,1006.34
2022-09-12T12:20:28.536Z,1006.32
2022-09-12T12:21:28.736Z,1006.30
2022-09-12T12:22:28.474Z,1006.32
2022-09-12T12:23:28.453Z,1006.28
2022-09-12T12:24:28.466Z,1006.30
2022-09-12T12:25:30.027Z,1006.32
2022-09-12T12:26:28.436Z,1006.32
2022-09-12T12:27:28.437Z,1006.35
2022-09-12T12:28:28.704Z,1006.28
2022-09-12T12:29:28.409Z,1006.26
2022-09-12T12:30:28.408Z,1006.24
2022-09-12T12:31:28.502Z,1006.24
2022-09-12T12:32:28.380Z,1006.22
2022-09-12T12:33:28.378Z,1006.25
2022-09-12T12:34:28.405Z,1006.22
2022-09-12T12:35:28.382Z,1006.17
2022-09-12T12:36:28.368Z,1006.19
2022-09-12T12:37:28.332Z,1006.17
2022-09-12T12:38:28.340Z,1006.14
2022-09-12T12:39:28.355Z,1006.17
2022-09-12T12:40:28.307Z,1006.15
2022-09-12T12:41:28.323Z,1006.15
2022-09-12T12:42:28.285Z,1006.13
2022-09-12T12:43:28.286Z,1006.14
2022-09-12T12:44:28.292Z,1006.09
2022-09-12T12:45:28.263Z,1006.04
2022-09-12T12:46:28.355Z,1006.03
2022-09-12T12:47:28.247Z,1005.98
2022-09-12T12:48:28.305Z,1005.92
2022-09-12T12:49:28.241Z,1005.91
2022-09-12T12:50:28.223Z,1005.90
2022-09-12T12:51:28.223Z,1005.84
2022-09-12T12:52:28.717Z,1005.89
2022-09-12T12:53:28.238Z,1005.83
2022-09-12T12:54:28.190Z,1005.88
2022-09-12T12:55:28.185Z,1005.83
2022-09-12T12:56:28.226Z,1005.87
2022-09-12T12:57:28.240Z,1005.83
2022-09-12T12:58:28.147Z,1005.85
2022-09-12T12:59:28.156Z,1005.78
2022-09-12T13:00:28.169Z,1005.76
2022-09-12T13:01:28.148Z,1005.76
2022-09-12T13:02:28.194Z,1005.78
2022-09-12T13:03:28.100Z,1005.75
2022-09-12T13:04:28.140Z,1005.72
2022-09-12T13:05:28.103Z,1005.71
2022-09-12T13:06:28.092Z,1005.72
2022-09-12T13:07:28.086Z,1005.69
2022-09-12T13:08:28.081Z,1005.68
2022-09-12T13:09:28.158Z,1005.62
2022-09-12T13:10:28.722Z,1005.61
2022-09-12T13:11:28.052Z,1005.60
2022-09-12T13:12:28.058Z,1005.50
2022-09-12T13:13:28.055Z,1005.54
2022-09-12T13:14:28.075Z,1005.58
2022-09-12T13:15:28.079Z,1005.59
2022-09-12T13:16:28.007Z,1005.55
2022-09-12T13:17:27.993Z,1005.53
2022-09-12T13:18:27.993Z,1005.47
2022-09-12T13:19:28.043Z,1005.43
2022-09-12T13:20:29.230Z,1005.40
2022-09-12T13:21:27.971Z,1005.41
2022-09-12T13:22:27.960Z,1005.42
2022-09-12T13:23:27.977Z,1005.43
2022-09-12T13:24:27.959Z,1005.46
2022-09-12T13:25:27.938Z,1005.46
2022-09-12T13:26:27.916Z,1005.43
2022-09-12T13:27:27.895Z,1005.41
2022-09-12T13:28:27.917Z,1005.45
2022-09-12T13:29:27.891Z,1005.43
2022-09-12T13:30:27.923Z,1005.41
2022-09-12T13:31:27.904Z,1005.36
2022-09-12T13:32:27.927Z,1005.35
2022-09-12T13:33:27.855Z,1005.32
2022-09-12T13:34:27.861Z,1005.39
2022-09-12T13:35:27.859Z,1005.41
2022-09-12T13:36:27.835Z,1005.44
2022-09-12T13:37:27.854Z,1005.37
2022-09-12T13:38:27.855Z,1005.37
2022-09-12T13:39:27.840Z,1005.39
2022-09-12T13:40:27.892Z,1005.44
2022-09-12T13:41:27.785Z,1005.34
2022-09-12T13:42:27.818Z,1005.33
2022-09-12T13:43:27.820Z,1005.29
2022-09-12T13:44:27.905Z,1005.27
2022-09-12T13:45:27.776Z,1005.30
2022-09-12T13:46:27.801Z,1005.30
2022-09-12T13:47:27.743Z,1005.29
2022-09-12T13:48:27.791Z,1005.21
2022-09-12T13:49:27.804Z,1005.21
2022-09-12T13:50:27.790Z,1005.17
2022-09-12T13:51:27.696Z,1005.12
2022-09-12T13:52:34.266Z,1005.15
2022-09-12T13:53:27.707Z,1005.19
2022-09-12T13:54:27.679Z,1005.15
2022-09-12T13:55:27.746Z,1005.15
2022-09-12T13:56:27.662Z,1005.17
2022-09-12T13:57:27.667Z,1005.15
2022-09-12T13:58:27.677Z,1005.11
2022-09-12T13:59:27.646Z,1005.07
2022-09-12T14:00:27.627Z,1005.10
2022-09-12T14:01:27.706Z,1005.13
2022-09-12T14:02:27.739Z,1005.17
2022-09-12T14:03:27.641Z,1005.15
2022-09-12T14:04:27.594Z,1005.13
2022-09-12T14:05:27.594Z,1005.17
2022-09-12T14:06:27.691Z,1005.09
2022-09-12T14:07:27.589Z,1005.09
2022-09-12T14:08:27.555Z,1005.06
2022-09-12T14:09:27.670Z,1005.09
2022-09-12T14:10:27.539Z,1005.11
2022-09-12T14:11:27.535Z,1005.10
2022-09-12T14:12:27.560Z,1005.12
2022-09-12T14:13:27.516Z,1005.14
2022-09-12T14:14:27.546Z,1005.17
2022-09-12T14:15:27.706Z,1005.13
2022-09-12T14:16:27.522Z,1005.14
2022-09-12T14:17:27.501Z,1005.14
2022-09-12T14:18:27.523Z,1005.13
2022-09-12T14:19:27.486Z,1005.10
2022-09-12T14:20:27.459Z,1005.07
2022-09-12T14:21:27.714Z,1005.08
2022-09-12T14:22:27.441Z,1005.03
2022-09-12T14:23:27.469Z,1005.03
2022-09-12T14:24:27.554Z,1005.03
2022-09-12T14:25:27.467Z,1005.04
2022-09-12T14:26:27.432Z,1005.00
2022-09-12T14:27:27.391Z,1004.93
2022-09-12T14:28:27.413Z,1004.93
2022-09-12T14:29:27.397Z,1004.94
2022-09-12T14:30:27.375Z,1004.90
2022-09-12T14:31:27.415Z,1004.92
2022-09-12T14:32:27.361Z,1004.87
2022-09-12T14:33:27.359Z,1004.85
2022-09-12T14:34:27.438Z,1004.94
2022-09-12T14:35:27.368Z,1004.92
2022-09-12T14:36:27.349Z,1004.94
2022-09-12T14:37:27.333Z,1004.89
2022-09-12T14:38:27.318Z,1004.85
2022-09-12T14:39:27.287Z,1004.86
2022-09-12T14:40:27.369Z,1004.86
2022-09-12T14:41:27.290Z,1004.82
2022-09-12T14:42:33.782Z,1004.84
2022-09-12T14:43:27.334Z,1004.87
2022-09-12T14:44:27.254Z,1004.84
2022-09-12T14:45:27.240Z,1004.83
2022-09-12T14:46:27.277Z,1004.84
2022-09-12T14:47:27.264Z,1004.83
2022-09-12T14:48:27.219Z,1004.75
2022-09-12T14:49:27.222Z,1004.79
2022-09-12T14:50:27.197Z,1004.78
2022-09-12T14:51:27.213Z,1004.72
2022-09-12T14:52:27.237Z,1004.71
2022-09-12T14:53:27.187Z,1004.67
2022-09-12T14:54:27.159Z,1004.73
2022-09-12T14:55:27.164Z,1004.70
2022-09-12T14:56:27.179Z,1004.63
2022-09-12T14:57:27.804Z,1004.72
2022-09-12T14:58:27.134Z,1004.65
2022-09-12T14:59:27.128Z,1004.65
2022-09-12T15:00:27.174Z,1004.59
2022-09-12T15:01:27.164Z,1004.57
2022-09-12T15:02:27.108Z,1004.60
2022-09-12T15:03:27.081Z,1004.57
2022-09-12T15:04:27.147Z,1004.60
2022-09-12T15:05:27.073Z,1004.63
2022-09-12T15:06:27.099Z,1004.62
2022-09-12T15:07:27.059Z,1004.58
2022-09-12T15:08:27.049Z,1004.59
2022-09-12T15:09:27.058Z,1004.56
2022-09-12T15:10:27.022Z,1004.54
2022-09-12T15:11:27.020Z,1004.52
2022-09-12T15:12:27.004Z,1004.52
2022-09-12T15:13:26.995Z,1004.51
2022-09-12T15:14:27.000Z,1004.46
2022-09-12T15:15:26.977Z,1004.48
2022-09-12T15:16:26.973Z,1004.45
2022-09-12T15:17:26.954Z,1004.49
2022-09-12T15:18:26.971Z,1004.50
2022-09-12T15:19:26.942Z,1004.49
2022-09-12T15:20:26.937Z,1004.54
2022-09-12T15:21:26.920Z,1004.54
2022-09-12T15:22:26.909Z,1004.55
2022-09-12T15:23:26.944Z,1004.63
2022-09-12T15:24:26.891Z,1004.48
2022-09-12T15:25:26.888Z,1004.44
2022-09-12T15:26:26.872Z,1004.45
2022-09-12T15:27:26.878Z,1004.47
2022-09-12T15:28:27.121Z,1004.47
2022-09-12T15:29:26.862Z,1004.48
2022-09-12T15:30:26.835Z,1004.48
2022-09-12T15:31:26.939Z,1004.46
2022-09-12T15:32:26.819Z,1004.47
2022-09-12T15:33:26.819Z,1004.49
2022-09-12T15:34:26.794Z,1004.52
2022-09-12T15:35:26.815Z,1004.47
2022-09-12T15:36:26.800Z,1004.46
2022-09-12T15:37:26.757Z,1004.49
2022-09-12T15:38:26.968Z,1004.45
2022-09-12T15:39:26.770Z,1004.45